This is the latest recevied weather packets stored in our database for station/object SP2TMT-10. If no packets are shown the sender has not sent any weather packets the latest 1 day(s).
| Time | Temp. | Humidity | Pressure | Rain* | Wind** | Luminosity | Snow |
|---|---|---|---|---|---|---|---|
| 1778107534 | 21.11° C | 37% | 1008.1 hPa | - | - | - | - |
| 1778103934 | 21.11° C | 39% | 1007.4 hPa | - | - | - | - |
| 1778103034 | 21.67° C | 39% | 1007.4 hPa | - | - | - | - |
| 1778096728 | 21.67° C | 41% | 1006.8 hPa | - | - | - | - |
| 1778091327 | 21.67° C | 46% | 1005.6 hPa | - | - | - | - |
| 1778090427 | 21.67° C | 46% | 1005.6 hPa | - | - | - | - |
| 1778089527 | 22.22° C | 47% | 1005.2 hPa | - | - | - | - |
| 1778083222 | 22.22° C | 47% | 1004.8 hPa | - | - | - | - |
| 1778082321 | 22.22° C | 47% | 1004.8 hPa | - | - | - | - |
| 1778074220 | 21.11° C | 46% | 1005.2 hPa | - | - | - | - |
| 1778072420 | 21.11° C | 45% | 1005 hPa | - | - | - | - |
| 1778071520 | 20.56° C | 44% | 1005 hPa | - | - | - | - |
| 1778070620 | 20.56° C | 44% | 1005 hPa | - | - | - | - |
| 1778066114 | 21.67° C | 44% | 1004.4 hPa | - | - | - | - |
| 1778064314 | 21.67° C | 44% | 1004.4 hPa | - | - | - | - |
| 1778059813 | 21.67° C | 44% | 1004.2 hPa | - | - | - | - |
| 1778050807 | 21.67° C | 42% | 1004.1 hPa | - | - | - | - |
| 1778049907 | 21.67° C | 42% | 1004.3 hPa | - | - | - | - |
| 1778049007 | 21.67° C | 42% | 1004.4 hPa | - | - | - | - |
| 1778042701 | 21.67° C | 40% | 1005.5 hPa | - | - | - | - |
| 1778041801 | 21.11° C | 40% | 1005.7 hPa | - | - | - | - |
| 1778035500 | 21.67° C | 41% | 1006.5 hPa | - | - | - | - |
| 1778034600 | 21.67° C | 41% | 1006.5 hPa | - | - | - | - |
| 1778031899 | 21.67° C | 41% | 1007 hPa | - | - | - | - |
| 1778030099 | 21.67° C | 42% | 1007.2 hPa | - | - | - | - |
* Rain since midnight (hover to see other rain measurements)
** Current wind speed in m/s (hover to see current wind gust speed)